createdAt,value
2023-03-29T00:01:35.818Z,3.72
2023-03-29T00:04:04.996Z,4.10
2023-03-29T00:06:33.489Z,4.10
2023-03-29T00:09:05.250Z,3.40
2023-03-29T00:11:33.540Z,3.33
2023-03-29T00:14:01.635Z,4.07
2023-03-29T00:16:31.155Z,4.45
2023-03-29T00:18:59.416Z,4.07
2023-03-29T00:21:27.545Z,4.00
2023-03-29T00:23:55.648Z,4.13
2023-03-29T00:26:23.800Z,4.07
2023-03-29T00:28:51.912Z,4.40
2023-03-29T00:31:20.437Z,4.80
2023-03-29T00:33:50.018Z,4.30
2023-03-29T00:36:18.113Z,4.80
2023-03-29T00:38:46.200Z,4.93
2023-03-29T00:41:14.726Z,4.18
2023-03-29T00:44:00.325Z,4.53
2023-03-29T00:46:29.962Z,4.82
2023-03-29T00:49:03.838Z,4.20
2023-03-29T00:51:35.373Z,4.32
2023-03-29T00:54:05.239Z,4.82
2023-03-29T00:56:37.539Z,3.97
2023-03-29T00:59:07.745Z,4.57
2023-03-29T01:01:42.260Z,4.63
2023-03-29T01:04:18.679Z,5.07
2023-03-29T01:06:50.106Z,5.00
2023-03-29T01:09:20.055Z,5.03
2023-03-29T01:11:52.016Z,5.15
2023-03-29T01:14:23.421Z,5.03
2023-03-29T01:16:51.899Z,6.03
2023-03-29T01:19:24.379Z,5.28
2023-03-29T01:21:56.112Z,6.00
2023-03-29T01:24:41.900Z,5.10
2023-03-29T01:27:15.914Z,5.68
2023-03-29T01:29:48.183Z,5.28
2023-03-29T01:32:18.618Z,6.07
2023-03-29T01:34:49.928Z,5.22
2023-03-29T01:37:21.952Z,5.40
2023-03-29T01:39:50.087Z,5.68
2023-03-29T01:42:33.753Z,5.47
2023-03-29T01:45:08.973Z,4.80
2023-03-29T01:47:43.693Z,5.97
2023-03-29T01:50:15.538Z,5.15
2023-03-29T01:52:48.600Z,5.28
2023-03-29T01:55:20.636Z,4.75
2023-03-29T01:57:49.407Z,4.45
2023-03-29T02:00:25.102Z,4.35
2023-03-29T02:02:54.811Z,4.55
2023-03-29T02:05:23.513Z,4.68
2023-03-29T02:07:52.913Z,4.88
2023-03-29T02:10:21.852Z,4.57
2023-03-29T02:12:50.749Z,4.80
2023-03-29T02:15:21.840Z,5.07
2023-03-29T02:17:51.069Z,5.90
2023-03-29T02:20:23.017Z,4.85
2023-03-29T02:22:56.178Z,5.07
2023-03-29T02:25:24.580Z,4.85
2023-03-29T02:27:53.117Z,4.90
2023-03-29T02:30:22.914Z,4.85
2023-03-29T02:32:54.301Z,4.47
2023-03-29T02:35:26.553Z,4.18
2023-03-29T02:37:56.449Z,5.05
2023-03-29T02:40:26.280Z,4.55
2023-03-29T02:42:55.712Z,4.50
2023-03-29T02:45:27.072Z,4.20
2023-03-29T02:47:56.306Z,4.47
2023-03-29T02:50:25.400Z,4.97
2023-03-29T02:52:56.194Z,5.15
2023-03-29T02:55:26.104Z,4.72
2023-03-29T02:57:54.213Z,4.53
2023-03-29T03:00:24.660Z,4.60
2023-03-29T03:02:52.969Z,4.78
2023-03-29T03:05:21.284Z,4.13
2023-03-29T03:07:49.343Z,4.10
2023-03-29T03:10:19.172Z,4.35
2023-03-29T03:12:47.288Z,4.85
2023-03-29T03:15:15.495Z,4.03
2023-03-29T03:17:46.605Z,4.50
2023-03-29T03:20:15.055Z,4.38
2023-03-29T03:22:44.159Z,4.05
2023-03-29T03:25:13.134Z,4.40
2023-03-29T03:27:41.374Z,4.07
2023-03-29T03:30:10.954Z,4.22
2023-03-29T03:32:39.256Z,4.80
2023-03-29T03:35:09.999Z,5.05
2023-03-29T03:37:38.364Z,4.55
2023-03-29T03:40:12.011Z,4.43
2023-03-29T03:42:40.403Z,4.72
2023-03-29T03:45:09.909Z,4.18
2023-03-29T03:47:38.546Z,4.18
2023-03-29T03:50:09.734Z,4.93
2023-03-29T03:52:37.829Z,4.68
2023-03-29T03:55:06.581Z,4.70
2023-03-29T03:57:37.460Z,4.00
2023-03-29T04:00:19.395Z,4.10
2023-03-29T04:02:48.338Z,4.38
2023-03-29T04:05:18.170Z,4.35
2023-03-29T04:07:46.345Z,3.88
2023-03-29T04:10:14.819Z,4.20
2023-03-29T04:12:43.188Z,4.70
2023-03-29T04:15:12.152Z,4.28
2023-03-29T04:17:40.559Z,4.43
2023-03-29T04:20:12.371Z,3.97
2023-03-29T04:22:42.234Z,4.32
2023-03-29T04:25:11.679Z,4.05
2023-03-29T04:27:40.435Z,4.55
2023-03-29T04:30:09.559Z,4.38
2023-03-29T04:32:37.764Z,3.53
2023-03-29T04:35:06.343Z,4.28
2023-03-29T04:37:34.565Z,3.42
2023-03-29T04:40:09.025Z,3.50
2023-03-29T04:42:37.357Z,4.38
2023-03-29T04:45:07.050Z,4.20
2023-03-29T04:47:36.600Z,3.75
2023-03-29T04:50:05.207Z,4.97
2023-03-29T04:52:33.484Z,4.43
2023-03-29T04:55:03.203Z,4.35
2023-03-29T04:57:31.598Z,4.70
2023-03-29T04:59:59.730Z,4.65
2023-03-29T05:02:27.850Z,4.32
2023-03-29T05:04:56.837Z,4.22
2023-03-29T05:07:24.949Z,5.15
2023-03-29T05:09:53.538Z,4.32
2023-03-29T05:12:22.988Z,4.20
2023-03-29T05:14:51.144Z,3.67
2023-03-29T05:17:19.276Z,3.50
2023-03-29T05:19:47.963Z,3.53
2023-03-29T05:22:16.646Z,4.60
2023-03-29T05:24:44.803Z,3.92
2023-03-29T05:27:13.498Z,3.20
2023-03-29T05:29:43.642Z,5.72
2023-03-29T05:32:12.001Z,4.78
2023-03-29T05:34:40.451Z,5.10
2023-03-29T05:37:08.527Z,3.63
2023-03-29T05:39:37.790Z,3.65
2023-03-29T05:42:06.484Z,4.05
2023-03-29T05:44:34.629Z,3.95
2023-03-29T05:47:04.047Z,4.45
2023-03-29T05:49:32.123Z,4.00
2023-03-29T05:52:00.348Z,4.07
2023-03-29T05:54:28.441Z,4.07
2023-03-29T05:56:56.752Z,4.05
2023-03-29T05:59:24.999Z,4.50
2023-03-29T06:01:53.118Z,3.38
2023-03-29T06:04:22.911Z,3.55
2023-03-29T06:06:51.113Z,3.83
2023-03-29T06:09:19.350Z,3.47
2023-03-29T06:11:47.673Z,3.35
2023-03-29T06:14:16.639Z,3.83
2023-03-29T06:16:45.088Z,4.40
2023-03-29T06:19:13.623Z,4.18
2023-03-29T06:21:43.163Z,4.70
2023-03-29T06:24:11.254Z,3.67
2023-03-29T06:26:39.318Z,4.13
2023-03-29T06:29:08.502Z,4.25
2023-03-29T06:31:37.199Z,4.22
2023-03-29T06:34:05.990Z,4.60
2023-03-29T06:36:35.015Z,4.50
2023-03-29T06:39:05.447Z,4.82
2023-03-29T06:41:33.817Z,4.00
2023-03-29T06:44:02.020Z,5.03
2023-03-29T06:46:30.663Z,4.30
2023-03-29T06:48:58.746Z,4.05
2023-03-29T06:51:27.636Z,4.40
2023-03-29T06:53:55.697Z,4.60
2023-03-29T06:56:25.156Z,4.13
2023-03-29T06:58:53.651Z,5.32
2023-03-29T07:01:21.906Z,4.15
2023-03-29T07:03:50.317Z,4.45
2023-03-29T07:06:20.452Z,4.35
2023-03-29T07:08:52.379Z,5.18
2023-03-29T07:11:21.250Z,4.50
2023-03-29T07:13:51.102Z,4.72
2023-03-29T07:16:19.660Z,4.80
2023-03-29T07:18:47.781Z,4.72
2023-03-29T07:21:16.373Z,5.18
2023-03-29T07:23:44.664Z,4.53
2023-03-29T07:26:12.856Z,4.45
2023-03-29T07:28:40.908Z,4.78
2023-03-29T07:31:11.945Z,4.25
2023-03-29T07:33:40.871Z,5.18
2023-03-29T07:36:10.094Z,4.40
2023-03-29T07:38:38.563Z,3.75
2023-03-29T07:41:08.034Z,4.32
2023-03-29T07:43:36.232Z,4.65
2023-03-29T07:46:05.791Z,13.60
2023-03-29T07:48:37.151Z,4.57
2023-03-29T07:51:06.194Z,4.00
2023-03-29T07:53:34.323Z,4.60
2023-03-29T07:56:02.397Z,4.32
2023-03-29T07:58:30.642Z,4.32
2023-03-29T08:01:00.635Z,4.65
2023-03-29T08:03:29.260Z,3.88
2023-03-29T09:51:26.350Z,7.93
2023-03-29T09:53:56.107Z,6.75
2023-03-29T09:56:24.464Z,8.05
2023-03-29T09:58:52.556Z,7.43
2023-03-29T10:01:20.819Z,6.82
2023-03-29T10:03:53.742Z,6.05
2023-03-29T10:06:25.534Z,6.03
2023-03-29T10:08:57.901Z,6.75
2023-03-29T10:11:31.491Z,6.40
2023-03-29T10:14:02.908Z,6.13
2023-03-29T10:16:35.189Z,6.38
2023-03-29T10:19:17.944Z,7.22
2023-03-29T10:21:49.952Z,8.32
2023-03-29T10:24:21.747Z,7.07
2023-03-29T10:26:55.275Z,8.38
2023-03-29T10:29:24.700Z,8.25
2023-03-29T10:31:53.437Z,8.25
2023-03-29T10:34:25.291Z,8.63
2023-03-29T10:36:58.650Z,6.78
2023-03-29T10:39:28.085Z,8.30
2023-03-29T10:41:56.663Z,8.85
2023-03-29T10:44:32.310Z,7.43
2023-03-29T10:47:10.645Z,7.78
2023-03-29T10:49:43.251Z,6.93
2023-03-29T10:52:14.887Z,7.82
2023-03-29T10:54:43.071Z,7.68
2023-03-29T10:57:19.861Z,8.90
2023-03-29T10:59:55.541Z,7.10
2023-03-29T11:02:59.224Z,7.53
2023-03-29T11:08:11.480Z,6.53
2023-03-29T11:10:47.656Z,6.68
2023-03-29T11:13:23.499Z,6.80
2023-03-29T11:16:00.241Z,6.13
2023-03-29T11:18:58.319Z,6.20
2023-03-29T11:21:29.950Z,6.28
2023-03-29T11:24:12.872Z,6.07
2023-03-29T11:26:47.864Z,5.82
2023-03-29T11:29:21.884Z,5.53
2023-03-29T11:31:59.577Z,4.65
2023-03-29T11:34:32.578Z,3.92
2023-03-29T11:39:38.870Z,3.40
2023-03-29T11:42:10.474Z,3.22
2023-03-29T11:44:39.644Z,3.70
2023-03-29T11:47:10.075Z,2.88
2023-03-29T11:49:43.088Z,3.47
2023-03-29T11:54:45.479Z,4.55
2023-03-29T11:57:16.922Z,4.03
2023-03-29T11:59:51.518Z,3.28
2023-03-29T12:02:23.996Z,3.58
2023-03-29T12:04:54.194Z,3.03
2023-03-29T12:07:28.001Z,2.88
2023-03-29T12:10:01.761Z,3.20
2023-03-29T12:12:34.314Z,2.28
2023-03-29T12:15:07.707Z,2.58
2023-03-29T12:17:39.330Z,2.30
2023-03-29T12:20:14.832Z,2.60
2023-03-29T12:22:42.882Z,2.53
2023-03-29T12:25:19.198Z,2.70
2023-03-29T12:27:56.513Z,2.75
2023-03-29T12:30:33.193Z,3.10
2023-03-29T12:33:13.084Z,2.63
2023-03-29T12:35:51.989Z,2.88
2023-03-29T12:38:22.396Z,2.33
2023-03-29T12:40:57.524Z,2.70
2023-03-29T12:43:28.174Z,2.78
2023-03-29T12:45:59.407Z,3.05
2023-03-29T12:48:29.550Z,2.88
2023-03-29T12:51:02.213Z,2.60
2023-03-29T12:53:34.409Z,2.47
2023-03-29T12:56:13.888Z,2.40
2023-03-29T12:58:57.539Z,2.80
2023-03-29T13:01:29.265Z,2.35
2023-03-29T13:04:13.777Z,2.33
2023-03-29T13:07:07.158Z,2.10
2023-03-29T13:09:37.598Z,2.78
2023-03-29T13:12:09.520Z,2.75
2023-03-29T13:14:42.666Z,2.80
2023-03-29T13:17:18.782Z,2.63
2023-03-29T13:19:50.074Z,2.90
2023-03-29T13:22:27.235Z,2.60
2023-03-29T13:25:11.936Z,3.08
2023-03-29T13:27:46.614Z,2.75
2023-03-29T13:30:41.401Z,3.30
2023-03-29T13:33:24.279Z,3.10
2023-03-29T13:36:00.589Z,3.13
2023-03-29T13:38:31.979Z,3.28
2023-03-29T13:41:05.033Z,2.50
2023-03-29T13:46:19.366Z,2.92
2023-03-29T13:48:55.364Z,2.80
2023-03-29T13:51:44.986Z,2.90
2023-03-29T13:54:27.479Z,2.83
2023-03-29T13:57:01.477Z,3.70
2023-03-29T13:59:36.716Z,3.97
2023-03-29T14:02:06.527Z,2.90
2023-03-29T14:04:40.079Z,3.47
2023-03-29T14:07:10.701Z,2.85
2023-03-29T14:09:43.967Z,2.53
2023-03-29T14:12:14.886Z,3.00
2023-03-29T14:14:59.510Z,2.75
2023-03-29T14:17:29.078Z,3.30
2023-03-29T14:20:00.650Z,3.25
2023-03-29T14:22:32.315Z,2.88
2023-03-29T14:25:04.721Z,3.20
2023-03-29T14:27:33.619Z,2.33
2023-03-29T14:30:03.232Z,2.78
2023-03-29T14:32:32.664Z,3.28
2023-03-29T14:35:03.195Z,3.25
2023-03-29T14:37:31.520Z,2.80
2023-03-29T14:40:00.293Z,2.70
2023-03-29T14:42:30.161Z,2.70
2023-03-29T14:45:06.967Z,2.47
2023-03-29T14:47:36.439Z,2.60
2023-03-29T14:50:06.162Z,2.50
2023-03-29T14:52:35.392Z,2.92
2023-03-29T14:55:04.153Z,2.13
2023-03-29T14:57:35.510Z,2.67
2023-03-29T15:00:16.268Z,2.70
2023-03-29T15:02:50.958Z,2.90
2023-03-29T15:05:31.869Z,2.78
2023-03-29T15:08:01.107Z,2.80
2023-03-29T15:10:30.271Z,2.55
2023-03-29T15:12:58.490Z,2.40
2023-03-29T15:15:28.248Z,2.50
2023-03-29T15:17:58.752Z,2.55
2023-03-29T15:20:29.576Z,3.15
2023-03-29T15:23:01.090Z,2.38
2023-03-29T15:25:35.952Z,2.70
2023-03-29T15:28:04.068Z,3.00
2023-03-29T15:30:39.465Z,2.60
2023-03-29T15:33:26.079Z,3.10
2023-03-29T15:35:54.858Z,2.50
2023-03-29T15:38:30.202Z,2.30
2023-03-29T15:41:04.836Z,2.60
2023-03-29T15:43:32.968Z,2.63
2023-03-29T15:46:03.500Z,3.20
2023-03-29T15:48:33.761Z,2.83
2023-03-29T15:51:06.086Z,3.08
2023-03-29T15:53:34.860Z,2.47
2023-03-29T15:56:05.285Z,2.47
2023-03-29T15:58:34.846Z,2.97
2023-03-29T16:01:12.397Z,2.88
2023-03-29T16:03:41.652Z,3.85
2023-03-29T16:06:12.309Z,3.03
2023-03-29T16:08:42.138Z,1.83
2023-03-29T16:11:11.583Z,2.90
2023-03-29T16:13:40.071Z,2.97
2023-03-29T16:16:10.996Z,3.05
2023-03-29T16:18:39.417Z,3.25
2023-03-29T16:21:09.868Z,2.92
2023-03-29T16:23:39.164Z,2.45
2023-03-29T16:26:07.651Z,2.30
2023-03-29T16:28:37.281Z,2.53
2023-03-29T16:31:05.741Z,2.28
2023-03-29T16:33:35.880Z,2.20
2023-03-29T16:36:04.295Z,2.40
2023-03-29T16:38:34.212Z,3.08
2023-03-29T16:41:02.741Z,2.88
2023-03-29T16:43:31.691Z,2.47
2023-03-29T16:46:00.061Z,2.58
2023-03-29T16:48:28.268Z,3.08
2023-03-29T16:50:57.713Z,2.60
2023-03-29T16:53:27.065Z,2.70
2023-03-29T16:55:55.324Z,2.03
2023-03-29T16:58:23.652Z,2.85
2023-03-29T17:00:53.690Z,2.78
2023-03-29T17:03:21.972Z,2.35
2023-03-29T17:05:50.306Z,2.53
2023-03-29T17:08:20.313Z,5.13
2023-03-29T17:10:52.449Z,2.65
2023-03-29T17:13:20.659Z,2.33
2023-03-29T17:15:48.800Z,2.50
2023-03-29T17:18:17.009Z,2.97
2023-03-29T17:20:45.137Z,2.00
2023-03-29T17:23:13.434Z,2.30
2023-03-29T17:25:43.628Z,2.67
2023-03-29T17:28:11.981Z,2.65
2023-03-29T17:30:40.143Z,2.33
2023-03-29T17:33:08.555Z,2.72
2023-03-29T17:35:36.808Z,2.78
2023-03-29T17:38:04.880Z,2.97
2023-03-29T17:40:32.978Z,2.58
2023-03-29T17:43:03.266Z,2.58
2023-03-29T17:45:32.234Z,3.17
2023-03-29T17:48:00.459Z,4.13
2023-03-29T17:50:29.135Z,4.20
2023-03-29T17:52:57.187Z,3.47
2023-03-29T17:55:26.477Z,2.67
2023-03-29T17:57:55.295Z,2.30
2023-03-29T18:00:25.020Z,2.60
2023-03-29T18:02:53.117Z,2.10
2023-03-29T18:05:21.244Z,2.03
2023-03-29T18:07:49.358Z,2.22
2023-03-29T18:10:17.656Z,2.53
2023-03-29T18:12:46.300Z,3.10
2023-03-29T18:15:14.965Z,3.47
2023-03-29T18:17:45.327Z,2.75
2023-03-29T18:20:13.855Z,4.35
2023-03-29T18:22:42.482Z,5.82
2023-03-29T18:25:11.387Z,2.92
2023-03-29T18:27:39.877Z,2.92
2023-03-29T18:30:09.629Z,4.10
2023-03-29T18:32:37.822Z,2.75
2023-03-29T18:35:08.618Z,3.42
2023-03-29T18:37:37.193Z,2.70
2023-03-29T18:40:08.394Z,3.40
2023-03-29T18:42:36.544Z,2.88
2023-03-29T18:45:05.316Z,3.50
2023-03-29T18:47:33.529Z,3.78
2023-03-29T18:50:02.756Z,5.00
2023-03-29T18:52:32.263Z,3.53
2023-03-29T18:55:00.352Z,2.70
2023-03-29T18:57:28.632Z,2.75
2023-03-29T18:59:56.738Z,2.80
2023-03-29T19:02:24.887Z,2.53
2023-03-29T19:04:52.967Z,2.60
2023-03-29T19:07:22.024Z,2.90
2023-03-29T19:09:51.587Z,2.60
2023-03-29T19:12:19.663Z,2.67
2023-03-29T19:14:47.820Z,4.28
2023-03-29T19:17:16.063Z,3.05
2023-03-29T19:19:44.174Z,3.03
2023-03-29T19:22:12.230Z,4.43
2023-03-29T19:24:40.427Z,3.03
2023-03-29T19:27:12.460Z,2.92
2023-03-29T19:29:41.224Z,3.20
2023-03-29T19:32:09.356Z,2.75
2023-03-29T19:34:37.615Z,2.75
2023-03-29T19:37:05.918Z,2.85
2023-03-29T19:39:34.992Z,3.00
2023-03-29T19:42:03.084Z,2.30
2023-03-29T19:44:33.708Z,1.98
2023-03-29T19:47:01.920Z,2.53
2023-03-29T19:49:30.089Z,2.58
2023-03-29T19:51:58.289Z,2.70
2023-03-29T19:54:27.230Z,2.30
2023-03-29T19:56:57.364Z,2.20
2023-03-29T19:59:29.110Z,2.47
2023-03-29T20:01:59.346Z,2.13
2023-03-29T20:04:28.801Z,2.65
2023-03-29T20:06:57.752Z,2.80
2023-03-29T20:09:26.020Z,2.13
2023-03-29T20:11:54.131Z,2.80
2023-03-29T20:14:22.206Z,2.53
2023-03-29T20:16:50.918Z,2.72
2023-03-29T20:19:24.563Z,2.53
2023-03-29T20:21:55.041Z,2.58
2023-03-29T20:24:23.519Z,3.10
2023-03-29T20:26:51.608Z,2.35
2023-03-29T20:29:20.002Z,2.53
2023-03-29T20:31:48.440Z,2.45
2023-03-29T20:34:18.193Z,2.40
2023-03-29T20:36:48.410Z,2.47
2023-03-29T20:39:18.246Z,2.33
2023-03-29T20:41:47.808Z,2.00
2023-03-29T20:44:17.005Z,2.22
2023-03-29T20:46:54.538Z,2.90
2023-03-29T20:49:26.251Z,2.45
2023-03-29T20:51:58.746Z,2.20
2023-03-29T20:54:26.987Z,2.47
2023-03-29T20:56:56.043Z,2.63
2023-03-29T20:59:24.197Z,2.65
2023-03-29T21:01:52.405Z,2.65
2023-03-29T21:04:21.016Z,2.20
2023-03-29T21:06:50.320Z,2.38
2023-03-29T21:09:20.994Z,2.30
2023-03-29T21:11:49.126Z,2.30
2023-03-29T21:14:19.651Z,2.60
2023-03-29T21:16:47.943Z,2.65
2023-03-29T21:19:17.070Z,2.42
2023-03-29T21:21:47.102Z,2.40
2023-03-29T21:24:15.185Z,1.85
2023-03-29T21:26:44.632Z,2.90
2023-03-29T21:29:12.744Z,2.55
2023-03-29T21:31:41.276Z,2.15
2023-03-29T21:34:09.417Z,3.55
2023-03-29T21:36:37.486Z,3.25
2023-03-29T21:39:05.894Z,2.83
2023-03-29T21:41:33.994Z,2.53
2023-03-29T21:44:03.543Z,2.63
2023-03-29T21:46:31.674Z,2.95
2023-03-29T21:49:01.144Z,2.67
2023-03-29T21:51:29.200Z,2.50
2023-03-29T21:53:57.463Z,2.28
2023-03-29T21:56:26.365Z,2.60
2023-03-29T21:58:54.481Z,2.40
2023-03-29T22:01:23.944Z,1.95
2023-03-29T22:03:52.143Z,2.55
2023-03-29T22:06:21.813Z,2.17
2023-03-29T22:08:53.047Z,2.55
2023-03-29T22:11:21.187Z,1.77
2023-03-29T22:13:49.247Z,2.13
2023-03-29T22:16:18.269Z,2.15
2023-03-29T22:18:49.450Z,2.40
2023-03-29T22:21:19.887Z,2.30
2023-03-29T22:23:50.815Z,1.95
2023-03-29T22:26:20.375Z,2.65
2023-03-29T22:28:48.799Z,2.58
2023-03-29T22:31:18.864Z,1.92
2023-03-29T22:33:48.662Z,2.83
2023-03-29T22:36:18.370Z,1.83
2023-03-29T22:38:47.119Z,2.30
2023-03-29T22:41:15.822Z,1.85
2023-03-29T22:43:43.918Z,2.20
2023-03-29T22:46:14.020Z,2.08
2023-03-29T22:48:42.459Z,2.75
2023-03-29T22:51:11.955Z,2.20
2023-03-29T22:53:40.059Z,1.92
2023-03-29T22:56:09.238Z,2.58
2023-03-29T22:58:37.751Z,2.53
2023-03-29T23:01:06.572Z,2.55
2023-03-29T23:03:35.142Z,2.33
2023-03-29T23:06:03.361Z,2.33
2023-03-29T23:08:33.617Z,2.53
2023-03-29T23:11:02.278Z,2.10
2023-03-29T23:13:30.709Z,2.20
2023-03-29T23:16:00.227Z,2.08
2023-03-29T23:18:29.521Z,2.30
2023-03-29T23:20:59.059Z,2.30
2023-03-29T23:23:28.169Z,2.30
2023-03-29T23:25:57.925Z,2.13
2023-03-29T23:28:30.345Z,2.05
2023-03-29T23:31:00.343Z,2.33
2023-03-29T23:33:30.612Z,2.17
2023-03-29T23:35:58.691Z,2.47
2023-03-29T23:38:27.871Z,2.45
2023-03-29T23:41:00.844Z,2.17
2023-03-29T23:46:01.117Z,2.97
2023-03-29T23:48:29.407Z,2.30
2023-03-29T23:50:57.960Z,2.00
2023-03-29T23:53:28.997Z,2.60
2023-03-29T23:56:00.371Z,2.20
2023-03-29T23:58:28.829Z,2.30
